Terminal Aerodrome Forecast
Issued by NWS

Home | Current Version | Previous Version | Text Only | Print | Product List | Glossary On
Versions: 1 2 3 4 5 6 7 8 9 10 11 12 13 14
000
FTUS42 TJSJ 301100
TAFJMZ
TAF
TJMZ 301127Z 3012/0112 07005KT P6SM SKC
     FM301500 VRB05KT P6SM FEW025 SCT040
     FM301800 24010KT P6SM VCSH SCT025 BKN040
     FM302200 07005KT P6SM FEW030=

USA.gov is the U.S. government's official web portal to all federal, state and local government web resources and services.